sensor_id;sensor_type;location;lat;lon;timestamp;pressure;altitude;pressure_sealevel;temperature;humidity
41945;BME280;63122;52.424;13.458;2022-11-03T00:01:38;101449.66;;;7.76;72.13
41945;BME280;63122;52.424;13.458;2022-11-03T00:04:10;101451.50;;;7.63;72.86
41945;BME280;63122;52.424;13.458;2022-11-03T00:06:42;101448.38;;;7.58;73.08
41945;BME280;63122;52.424;13.458;2022-11-03T00:09:14;101450.75;;;7.49;73.25
41945;BME280;63122;52.424;13.458;2022-11-03T00:11:46;101450.97;;;7.46;73.43
41945;BME280;63122;52.424;13.458;2022-11-03T00:14:18;101452.09;;;7.55;73.47
41945;BME280;63122;52.424;13.458;2022-11-03T00:16:52;101450.50;;;7.53;73.62
41945;BME280;63122;52.424;13.458;2022-11-03T00:19:22;101443.59;;;7.52;73.70
41945;BME280;63122;52.424;13.458;2022-11-03T00:21:54;101452.41;;;7.51;73.76
41945;BME280;63122;52.424;13.458;2022-11-03T00:24:25;101448.13;;;7.49;73.76
41945;BME280;63122;52.424;13.458;2022-11-03T00:26:55;101450.47;;;7.41;74.13
41945;BME280;63122;52.424;13.458;2022-11-03T00:29:25;101449.72;;;7.39;74.42
41945;BME280;63122;52.424;13.458;2022-11-03T00:31:58;101445.00;;;7.44;74.41
41945;BME280;63122;52.424;13.458;2022-11-03T00:34:28;101445.22;;;7.41;74.57
41945;BME280;63122;52.424;13.458;2022-11-03T00:36:58;101447.84;;;7.41;74.89
41945;BME280;63122;52.424;13.458;2022-11-03T00:39:28;101444.09;;;7.32;75.46
41945;BME280;63122;52.424;13.458;2022-11-03T00:41:59;101445.03;;;7.31;75.79
41945;BME280;63122;52.424;13.458;2022-11-03T00:44:28;101435.59;;;7.29;75.57
41945;BME280;63122;52.424;13.458;2022-11-03T00:47:01;101436.25;;;7.19;76.13
41945;BME280;63122;52.424;13.458;2022-11-03T00:49:31;101436.13;;;7.21;76.47
41945;BME280;63122;52.424;13.458;2022-11-03T00:52:01;101432.91;;;7.17;76.68
41945;BME280;63122;52.424;13.458;2022-11-03T00:54:31;101421.50;;;7.05;77.61
41945;BME280;63122;52.424;13.458;2022-11-03T00:57:03;101411.25;;;7.02;77.81
41945;BME280;63122;52.424;13.458;2022-11-03T00:59:32;101408.72;;;7.01;78.24
41945;BME280;63122;52.424;13.458;2022-11-03T01:02:05;101414.97;;;7.11;77.76
41945;BME280;63122;52.424;13.458;2022-11-03T01:04:35;101423.91;;;7.09;77.66
41945;BME280;63122;52.424;13.458;2022-11-03T01:07:19;101417.31;;;7.03;77.65
41945;BME280;63122;52.424;13.458;2022-11-03T01:09:49;101423.06;;;7.08;77.58
41945;BME280;63122;52.424;13.458;2022-11-03T01:12:20;101410.06;;;7.06;77.36
41945;BME280;63122;52.424;13.458;2022-11-03T01:14:51;101413.88;;;7.02;77.39
41945;BME280;63122;52.424;13.458;2022-11-03T01:17:26;101414.91;;;7.00;77.42
41945;BME280;63122;52.424;13.458;2022-11-03T01:19:56;101408.84;;;6.99;77.37
41945;BME280;63122;52.424;13.458;2022-11-03T01:22:26;101412.19;;;7.01;77.42
41945;BME280;63122;52.424;13.458;2022-11-03T01:24:56;101408.00;;;6.99;77.67
41945;BME280;63122;52.424;13.458;2022-11-03T01:27:26;101411.84;;;7.06;77.28
41945;BME280;63122;52.424;13.458;2022-11-03T01:33:08;101405.41;;;6.86;78.08
41945;BME280;63122;52.424;13.458;2022-11-03T01:35:39;101404.53;;;6.98;77.82
41945;BME280;63122;52.424;13.458;2022-11-03T01:42:12;101402.91;;;6.84;78.35
41945;BME280;63122;52.424;13.458;2022-11-03T01:45:17;101406.56;;;6.82;78.40
41945;BME280;63122;52.424;13.458;2022-11-03T02:09:41;101402.31;;;6.55;78.50
41945;BME280;63122;52.424;13.458;2022-11-03T02:12:13;101389.13;;;6.43;79.06
41945;BME280;63122;52.424;13.458;2022-11-03T02:14:49;101394.38;;;6.30;79.77
41945;BME280;63122;52.424;13.458;2022-11-03T02:17:23;101395.50;;;6.26;80.06
41945;BME280;63122;52.424;13.458;2022-11-03T02:19:56;101393.03;;;6.25;79.87
41945;BME280;63122;52.424;13.458;2022-11-03T02:25:44;101389.72;;;5.95;80.75
41945;BME280;63122;52.424;13.458;2022-11-03T02:28:18;101377.69;;;5.93;80.81
41945;BME280;63122;52.424;13.458;2022-11-03T02:30:56;101364.38;;;5.83;80.99
41945;BME280;63122;52.424;13.458;2022-11-03T02:33:45;101360.69;;;5.72;81.47
41945;BME280;63122;52.424;13.458;2022-11-03T02:36:19;101357.25;;;5.85;80.97
41945;BME280;63122;52.424;13.458;2022-11-03T02:38:56;101357.88;;;5.88;80.81
41945;BME280;63122;52.424;13.458;2022-11-03T02:41:33;101356.09;;;5.89;80.12
41945;BME280;63122;52.424;13.458;2022-11-03T02:44:06;101360.69;;;5.85;80.02
41945;BME280;63122;52.424;13.458;2022-11-03T02:46:37;101357.13;;;5.99;79.33
41945;BME280;63122;52.424;13.458;2022-11-03T02:49:10;101360.78;;;5.71;80.14
41945;BME280;63122;52.424;13.458;2022-11-03T02:51:40;101356.38;;;5.71;79.99
41945;BME280;63122;52.424;13.458;2022-11-03T02:54:13;101351.25;;;5.70;80.33
41945;BME280;63122;52.424;13.458;2022-11-03T02:56:50;101351.06;;;5.73;80.00
41945;BME280;63122;52.424;13.458;2022-11-03T02:59:25;101352.28;;;5.67;80.14
41945;BME280;63122;52.424;13.458;2022-11-03T03:02:00;101343.09;;;5.61;80.45
41945;BME280;63122;52.424;13.458;2022-11-03T03:04:36;101340.16;;;5.66;80.41
41945;BME280;63122;52.424;13.458;2022-11-03T03:07:11;101337.66;;;5.65;80.15
41945;BME280;63122;52.424;13.458;2022-11-03T03:09:47;101335.25;;;5.61;80.02
41945;BME280;63122;52.424;13.458;2022-11-03T03:12:24;101332.38;;;5.52;80.23
41945;BME280;63122;52.424;13.458;2022-11-03T03:14:57;101327.78;;;5.55;80.14
41945;BME280;63122;52.424;13.458;2022-11-03T03:17:42;101318.03;;;5.57;80.59
41945;BME280;63122;52.424;13.458;2022-11-03T03:20:21;101324.00;;;5.46;80.80
41945;BME280;63122;52.424;13.458;2022-11-03T03:22:57;101321.19;;;5.50;80.61
41945;BME280;63122;52.424;13.458;2022-11-03T03:25:40;101321.69;;;5.42;81.03
41945;BME280;63122;52.424;13.458;2022-11-03T03:28:20;101325.97;;;5.43;81.07
41945;BME280;63122;52.424;13.458;2022-11-03T03:30:56;101328.91;;;5.38;81.30
41945;BME280;63122;52.424;13.458;2022-11-03T03:33:32;101324.41;;;5.40;81.33
41945;BME280;63122;52.424;13.458;2022-11-03T03:36:16;101330.47;;;5.41;81.44
41945;BME280;63122;52.424;13.458;2022-11-03T04:00:59;101309.41;;;5.29;82.63
41945;BME280;63122;52.424;13.458;2022-11-03T04:03:29;101308.66;;;5.27;82.51
41945;BME280;63122;52.424;13.458;2022-11-03T04:05:59;101309.72;;;5.25;82.43
41945;BME280;63122;52.424;13.458;2022-11-03T04:08:29;101312.66;;;5.33;82.48
41945;BME280;63122;52.424;13.458;2022-11-03T04:11:00;101302.81;;;5.24;82.54
41945;BME280;63122;52.424;13.458;2022-11-03T04:13:42;101299.34;;;5.23;82.60
41945;BME280;63122;52.424;13.458;2022-11-03T04:16:27;101305.31;;;5.25;83.10
41945;BME280;63122;52.424;13.458;2022-11-03T04:19:10;101304.38;;;5.26;82.68
41945;BME280;63122;52.424;13.458;2022-11-03T04:21:53;101308.59;;;5.29;82.68
41945;BME280;63122;52.424;13.458;2022-11-03T04:24:35;101302.91;;;5.22;82.92
41945;BME280;63122;52.424;13.458;2022-11-03T04:30:04;101304.25;;;5.15;83.50
41945;BME280;63122;52.424;13.458;2022-11-03T04:32:39;101302.28;;;5.18;83.64
41945;BME280;63122;52.424;13.458;2022-11-03T04:35:14;101296.00;;;5.21;83.21
41945;BME280;63122;52.424;13.458;2022-11-03T04:37:49;101291.63;;;5.22;83.27
41945;BME280;63122;52.424;13.458;2022-11-03T04:40:20;101284.59;;;5.22;83.56
41945;BME280;63122;52.424;13.458;2022-11-03T04:42:51;101282.50;;;5.27;83.70
41945;BME280;63122;52.424;13.458;2022-11-03T04:45:24;101280.00;;;5.26;83.62
41945;BME280;63122;52.424;13.458;2022-11-03T04:48:00;101274.56;;;5.29;83.42
41945;BME280;63122;52.424;13.458;2022-11-03T04:50:31;101280.94;;;5.25;83.39
41945;BME280;63122;52.424;13.458;2022-11-03T04:53:07;101272.16;;;5.26;83.73
41945;BME280;63122;52.424;13.458;2022-11-03T04:55:39;101271.44;;;5.24;83.83
41945;BME280;63122;52.424;13.458;2022-11-03T04:58:16;101267.88;;;5.25;83.96
41945;BME280;63122;52.424;13.458;2022-11-03T05:00:49;101271.44;;;5.37;83.54
41945;BME280;63122;52.424;13.458;2022-11-03T05:03:25;101272.28;;;5.37;83.45
41945;BME280;63122;52.424;13.458;2022-11-03T05:05:56;101267.78;;;5.39;83.25
41945;BME280;63122;52.424;13.458;2022-11-03T05:08:27;101260.13;;;5.36;83.06
41945;BME280;63122;52.424;13.458;2022-11-03T05:10:58;101256.56;;;5.24;83.56
41945;BME280;63122;52.424;13.458;2022-11-03T05:13:29;101258.66;;;5.19;83.75
41945;BME280;63122;52.424;13.458;2022-11-03T05:16:02;101252.03;;;5.13;84.13
41945;BME280;63122;52.424;13.458;2022-11-03T05:18:38;101247.75;;;5.12;84.53
41945;BME280;63122;52.424;13.458;2022-11-03T05:21:10;101251.41;;;5.10;84.57
41945;BME280;63122;52.424;13.458;2022-11-03T05:23:43;101239.38;;;5.07;84.45
41945;BME280;63122;52.424;13.458;2022-11-03T05:26:17;101240.59;;;5.01;84.92
41945;BME280;63122;52.424;13.458;2022-11-03T05:28:51;101233.19;;;5.08;84.74
41945;BME280;63122;52.424;13.458;2022-11-03T05:31:23;101227.53;;;5.01;84.79
41945;BME280;63122;52.424;13.458;2022-11-03T05:33:59;101225.47;;;5.07;84.55
41945;BME280;63122;52.424;13.458;2022-11-03T05:36:32;101225.75;;;5.02;84.70
41945;BME280;63122;52.424;13.458;2022-11-03T05:39:20;101222.94;;;5.05;84.51
41945;BME280;63122;52.424;13.458;2022-11-03T05:41:53;101221.25;;;5.04;84.65
41945;BME280;63122;52.424;13.458;2022-11-03T05:44:28;101219.50;;;5.04;84.50
41945;BME280;63122;52.424;13.458;2022-11-03T05:47:08;101222.28;;;5.01;84.41
41945;BME280;63122;52.424;13.458;2022-11-03T05:49:44;101217.63;;;5.07;84.23
41945;BME280;63122;52.424;13.458;2022-11-03T05:52:19;101215.59;;;4.97;84.69
41945;BME280;63122;52.424;13.458;2022-11-03T05:54:51;101215.50;;;4.99;84.34
41945;BME280;63122;52.424;13.458;2022-11-03T05:57:25;101215.81;;;4.94;84.78
41945;BME280;63122;52.424;13.458;2022-11-03T05:59:57;101210.28;;;4.99;84.99
41945;BME280;63122;52.424;13.458;2022-11-03T06:02:35;101219.59;;;5.03;84.59
41945;BME280;63122;52.424;13.458;2022-11-03T06:05:17;101215.31;;;5.02;84.94
41945;BME280;63122;52.424;13.458;2022-11-03T06:07:47;101215.91;;;4.93;85.28
41945;BME280;63122;52.424;13.458;2022-11-03T06:10:22;101216.13;;;5.02;84.73
41945;BME280;63122;52.424;13.458;2022-11-03T06:12:56;101205.47;;;4.93;84.84
41945;BME280;63122;52.424;13.458;2022-11-03T06:15:30;101204.81;;;4.89;85.27
41945;BME280;63122;52.424;13.458;2022-11-03T06:18:01;101208.91;;;4.93;85.28
41945;BME280;63122;52.424;13.458;2022-11-03T06:20:43;101216.75;;;4.93;85.13
41945;BME280;63122;52.424;13.458;2022-11-03T06:23:18;101217.59;;;4.94;84.87
41945;BME280;63122;52.424;13.458;2022-11-03T06:25:51;101217.97;;;4.87;85.43
41945;BME280;63122;52.424;13.458;2022-11-03T06:28:24;101219.78;;;4.87;85.25
41945;BME280;63122;52.424;13.458;2022-11-03T06:30:55;101223.56;;;4.96;84.96
41945;BME280;63122;52.424;13.458;2022-11-03T06:33:27;101228.06;;;4.94;84.55
41945;BME280;63122;52.424;13.458;2022-11-03T06:36:02;101224.25;;;4.85;84.96
41945;BME280;63122;52.424;13.458;2022-11-03T06:38:35;101225.28;;;4.82;85.55
41945;BME280;63122;52.424;13.458;2022-11-03T06:41:13;101226.13;;;4.83;85.65
41945;BME280;63122;52.424;13.458;2022-11-03T06:43:46;101224.25;;;4.85;85.77
41945;BME280;63122;52.424;13.458;2022-11-03T06:46:19;101215.47;;;4.86;85.71
41945;BME280;63122;52.424;13.458;2022-11-03T06:48:51;101223.41;;;4.84;85.99
41945;BME280;63122;52.424;13.458;2022-11-03T06:51:26;101212.66;;;4.89;85.84
41945;BME280;63122;52.424;13.458;2022-11-03T06:53:58;101210.13;;;4.87;85.91
41945;BME280;63122;52.424;13.458;2022-11-03T06:56:33;101205.66;;;4.89;86.25
41945;BME280;63122;52.424;13.458;2022-11-03T06:59:08;101203.88;;;4.90;86.06
41945;BME280;63122;52.424;13.458;2022-11-03T07:01:38;101205.88;;;4.99;85.76
41945;BME280;63122;52.424;13.458;2022-11-03T07:04:14;101195.81;;;4.93;85.93
41945;BME280;63122;52.424;13.458;2022-11-03T07:06:48;101190.63;;;5.06;85.67
41945;BME280;63122;52.424;13.458;2022-11-03T07:09:22;101194.09;;;5.19;85.51
41945;BME280;63122;52.424;13.458;2022-11-03T07:11:54;101189.16;;;5.15;85.24
41945;BME280;63122;52.424;13.458;2022-11-03T07:14:28;101187.50;;;5.27;85.01
41945;BME280;63122;52.424;13.458;2022-11-03T07:17:02;101184.38;;;5.35;85.05
41945;BME280;63122;52.424;13.458;2022-11-03T07:19:34;101182.56;;;5.35;85.09
41945;BME280;63122;52.424;13.458;2022-11-03T07:22:17;101181.13;;;5.44;84.78
41945;BME280;63122;52.424;13.458;2022-11-03T07:24:52;101192.22;;;5.60;84.21
41945;BME280;63122;52.424;13.458;2022-11-03T07:27:25;101195.00;;;5.70;83.88
41945;BME280;63122;52.424;13.458;2022-11-03T07:29:58;101192.81;;;5.77;83.65
41945;BME280;63122;52.424;13.458;2022-11-03T07:32:32;101196.06;;;5.81;83.37
41945;BME280;63122;52.424;13.458;2022-11-03T07:35:08;101194.88;;;5.98;82.59
41945;BME280;63122;52.424;13.458;2022-11-03T07:37:48;101197.31;;;6.01;82.37
41945;BME280;63122;52.424;13.458;2022-11-03T07:40:21;101193.50;;;6.05;82.23
41945;BME280;63122;52.424;13.458;2022-11-03T07:42:56;101193.50;;;6.05;82.39
41945;BME280;63122;52.424;13.458;2022-11-03T07:45:35;101192.31;;;6.22;82.03
41945;BME280;63122;52.424;13.458;2022-11-03T07:48:16;101188.38;;;6.16;82.38
41945;BME280;63122;52.424;13.458;2022-11-03T07:50:47;101190.81;;;6.31;81.89
41945;BME280;63122;52.424;13.458;2022-11-03T07:53:27;101187.97;;;6.34;81.65
41945;BME280;63122;52.424;13.458;2022-11-03T07:56:12;101189.00;;;6.44;81.76
41945;BME280;63122;52.424;13.458;2022-11-03T07:58:45;101184.78;;;6.42;81.76
41945;BME280;63122;52.424;13.458;2022-11-03T08:01:25;101175.53;;;6.49;81.13
41945;BME280;63122;52.424;13.458;2022-11-03T08:04:00;101166.94;;;6.47;81.47
41945;BME280;63122;52.424;13.458;2022-11-03T08:06:31;101170.69;;;6.56;81.06
41945;BME280;63122;52.424;13.458;2022-11-03T08:09:04;101172.19;;;6.71;80.28
41945;BME280;63122;52.424;13.458;2022-11-03T08:11:34;101167.53;;;6.75;80.34
41945;BME280;63122;52.424;13.458;2022-11-03T08:14:05;101160.16;;;6.80;80.20
41945;BME280;63122;52.424;13.458;2022-11-03T08:16:35;101159.78;;;6.73;80.59
41945;BME280;63122;52.424;13.458;2022-11-03T08:19:06;101150.84;;;6.76;80.01
41945;BME280;63122;52.424;13.458;2022-11-03T08:21:36;101145.50;;;6.77;80.31
41945;BME280;63122;52.424;13.458;2022-11-03T08:24:09;101146.50;;;6.99;79.66
41945;BME280;63122;52.424;13.458;2022-11-03T08:26:39;101140.22;;;7.25;78.66
41945;BME280;63122;52.424;13.458;2022-11-03T08:29:09;101144.16;;;7.30;78.50
41945;BME280;63122;52.424;13.458;2022-11-03T08:31:39;101137.09;;;7.31;79.01
41945;BME280;63122;52.424;13.458;2022-11-03T08:34:09;101133.03;;;7.38;77.89
41945;BME280;63122;52.424;13.458;2022-11-03T08:36:40;101132.22;;;7.49;77.78
41945;BME280;63122;52.424;13.458;2022-11-03T08:39:12;101126.50;;;7.55;77.14
41945;BME280;63122;52.424;13.458;2022-11-03T08:41:42;101127.69;;;7.62;77.10
41945;BME280;63122;52.424;13.458;2022-11-03T08:44:13;101125.53;;;7.56;77.35
41945;BME280;63122;52.424;13.458;2022-11-03T08:46:42;101121.94;;;7.69;77.15
41945;BME280;63122;52.424;13.458;2022-11-03T08:49:13;101117.22;;;7.95;76.83
41945;BME280;63122;52.424;13.458;2022-11-03T08:51:42;101113.81;;;8.27;75.09
41945;BME280;63122;52.424;13.458;2022-11-03T08:54:15;101112.34;;;8.34;75.33
41945;BME280;63122;52.424;13.458;2022-11-03T08:56:45;101105.63;;;8.63;73.96
41945;BME280;63122;52.424;13.458;2022-11-03T08:59:16;101097.69;;;8.74;72.19
41945;BME280;63122;52.424;13.458;2022-11-03T09:01:46;101093.91;;;8.88;71.71
41945;BME280;63122;52.424;13.458;2022-11-03T09:04:17;101098.91;;;8.91;71.99
41945;BME280;63122;52.424;13.458;2022-11-03T09:06:47;101099.63;;;8.72;72.58
41945;BME280;63122;52.424;13.458;2022-11-03T09:09:20;101091.31;;;8.67;71.95
41945;BME280;63122;52.424;13.458;2022-11-03T09:12:10;101090.81;;;9.04;71.16
41945;BME280;63122;52.424;13.458;2022-11-03T09:14:40;101092.31;;;8.97;71.24
41945;BME280;63122;52.424;13.458;2022-11-03T09:17:10;101077.19;;;9.30;69.49
41945;BME280;63122;52.424;13.458;2022-11-03T09:19:41;101081.78;;;9.28;70.13
41945;BME280;63122;52.424;13.458;2022-11-03T09:22:12;101082.78;;;9.47;69.54
41945;BME280;63122;52.424;13.458;2022-11-03T09:24:45;101084.19;;;9.51;69.32
41945;BME280;63122;52.424;13.458;2022-11-03T09:27:15;101074.53;;;9.20;71.12
41945;BME280;63122;52.424;13.458;2022-11-03T09:29:45;101073.69;;;9.71;69.35
41945;BME280;63122;52.424;13.458;2022-11-03T09:32:36;101060.09;;;9.65;68.74
41945;BME280;63122;52.424;13.458;2022-11-03T09:35:07;101057.88;;;9.61;68.31
41945;BME280;63122;52.424;13.458;2022-11-03T09:37:38;101044.34;;;9.95;67.60
41945;BME280;63122;52.424;13.458;2022-11-03T09:40:13;101044.31;;;9.75;68.63
41945;BME280;63122;52.424;13.458;2022-11-03T09:42:46;101028.78;;;10.31;67.42
41945;BME280;63122;52.424;13.458;2022-11-03T09:45:17;101026.69;;;10.35;67.46
41945;BME280;63122;52.424;13.458;2022-11-03T09:47:47;101025.84;;;10.34;66.91
41945;BME280;63122;52.424;13.458;2022-11-03T09:50:18;101025.19;;;10.42;67.22
41945;BME280;63122;52.424;13.458;2022-11-03T09:52:49;101026.28;;;10.49;65.74
41945;BME280;63122;52.424;13.458;2022-11-03T09:55:25;101016.50;;;10.70;65.50
41945;BME280;63122;52.424;13.458;2022-11-03T09:57:58;101001.63;;;10.69;66.41
41945;BME280;63122;52.424;13.458;2022-11-03T10:00:29;101011.81;;;10.54;65.75
41945;BME280;63122;52.424;13.458;2022-11-03T10:03:01;101007.72;;;10.79;65.69
41945;BME280;63122;52.424;13.458;2022-11-03T10:05:32;101000.72;;;11.16;63.70
41945;BME280;63122;52.424;13.458;2022-11-03T10:08:05;101004.75;;;11.66;61.85
41945;BME280;63122;52.424;13.458;2022-11-03T10:10:39;101002.00;;;11.58;62.32
41945;BME280;63122;52.424;13.458;2022-11-03T10:13:11;100985.03;;;11.60;62.61
41945;BME280;63122;52.424;13.458;2022-11-03T10:15:46;100987.84;;;11.77;61.48
41945;BME280;63122;52.424;13.458;2022-11-03T10:18:17;100987.47;;;11.90;59.97
41945;BME280;63122;52.424;13.458;2022-11-03T10:20:48;100983.84;;;12.09;60.67
41945;BME280;63122;52.424;13.458;2022-11-03T10:23:18;100977.69;;;12.08;61.06
41945;BME280;63122;52.424;13.458;2022-11-03T10:25:51;100972.78;;;11.95;61.00
41945;BME280;63122;52.424;13.458;2022-11-03T10:28:22;100965.38;;;11.27;62.79
41945;BME280;63122;52.424;13.458;2022-11-03T10:30:55;100960.94;;;11.81;61.55
41945;BME280;63122;52.424;13.458;2022-11-03T10:33:50;100961.50;;;11.67;61.62
41945;BME280;63122;52.424;13.458;2022-11-03T10:36:22;100956.63;;;12.17;60.91
41945;BME280;63122;52.424;13.458;2022-11-03T10:38:53;100949.00;;;11.95;61.52
41945;BME280;63122;52.424;13.458;2022-11-03T10:41:27;100957.66;;;12.24;60.05
41945;BME280;63122;52.424;13.458;2022-11-03T10:44:00;100947.44;;;12.03;60.79
41945;BME280;63122;52.424;13.458;2022-11-03T10:46:31;100941.16;;;12.04;60.96
41945;BME280;63122;52.424;13.458;2022-11-03T10:49:18;100938.97;;;12.52;59.13
41945;BME280;63122;52.424;13.458;2022-11-03T10:51:50;100933.94;;;12.41;59.56
41945;BME280;63122;52.424;13.458;2022-11-03T10:54:22;100933.56;;;12.62;58.27
41945;BME280;63122;52.424;13.458;2022-11-03T10:56:55;100936.97;;;12.46;59.03
41945;BME280;63122;52.424;13.458;2022-11-03T10:59:30;100925.03;;;12.15;60.53
41945;BME280;63122;52.424;13.458;2022-11-03T11:02:07;100924.88;;;11.99;60.93
41945;BME280;63122;52.424;13.458;2022-11-03T11:04:41;100916.63;;;11.75;61.71
41945;BME280;63122;52.424;13.458;2022-11-03T11:07:18;100910.84;;;11.98;60.52
41945;BME280;63122;52.424;13.458;2022-11-03T11:09:49;100906.19;;;11.92;60.33
41945;BME280;63122;52.424;13.458;2022-11-03T11:12:24;100907.16;;;11.91;59.87
41945;BME280;63122;52.424;13.458;2022-11-03T11:14:55;100896.06;;;11.87;60.49
41945;BME280;63122;52.424;13.458;2022-11-03T11:17:45;100903.00;;;11.88;60.97
41945;BME280;63122;52.424;13.458;2022-11-03T11:26:40;100883.25;;;11.74;61.27
41945;BME280;63122;52.424;13.458;2022-11-03T11:29:44;100875.59;;;11.63;61.39
41945;BME280;63122;52.424;13.458;2022-11-03T11:32:49;100863.72;;;11.67;61.55
41945;BME280;63122;52.424;13.458;2022-11-03T11:39:01;100859.16;;;11.77;60.75
41945;BME280;63122;52.424;13.458;2022-11-03T11:44:57;100841.50;;;11.78;61.14
41945;BME280;63122;52.424;13.458;2022-11-03T11:47:45;100840.19;;;11.82;60.31
41945;BME280;63122;52.424;13.458;2022-11-03T11:50:26;100841.94;;;12.00;59.53
41945;BME280;63122;52.424;13.458;2022-11-03T11:53:02;100828.97;;;11.35;62.27
41945;BME280;63122;52.424;13.458;2022-11-03T11:55:37;100827.22;;;11.71;62.15
41945;BME280;63122;52.424;13.458;2022-11-03T11:58:16;100815.84;;;11.70;62.67
41945;BME280;63122;52.424;13.458;2022-11-03T12:00:55;100822.25;;;11.94;61.46
41945;BME280;63122;52.424;13.458;2022-11-03T12:03:32;100813.34;;;11.95;61.13
41945;BME280;63122;52.424;13.458;2022-11-03T12:06:04;100808.88;;;11.95;61.50
41945;BME280;63122;52.424;13.458;2022-11-03T12:08:35;100807.22;;;11.94;61.33
41945;BME280;63122;52.424;13.458;2022-11-03T12:11:08;100799.75;;;12.16;60.61
41945;BME280;63122;52.424;13.458;2022-11-03T12:13:46;100799.22;;;11.78;61.83
41945;BME280;63122;52.424;13.458;2022-11-03T12:16:33;100799.78;;;11.90;61.08
41945;BME280;63122;52.424;13.458;2022-11-03T12:22:40;100790.75;;;11.74;61.23
41945;BME280;63122;52.424;13.458;2022-11-03T12:25:35;100784.28;;;11.69;61.36
41945;BME280;63122;52.424;13.458;2022-11-03T12:28:06;100783.28;;;11.96;60.70
41945;BME280;63122;52.424;13.458;2022-11-03T12:30:36;100783.78;;;12.00;59.95
41945;BME280;63122;52.424;13.458;2022-11-03T12:33:09;100776.72;;;11.74;61.01
41945;BME280;63122;52.424;13.458;2022-11-03T12:35:39;100775.88;;;11.73;61.44
41945;BME280;63122;52.424;13.458;2022-11-03T12:38:09;100770.22;;;11.94;61.28
41945;BME280;63122;52.424;13.458;2022-11-03T12:40:40;100762.38;;;11.85;61.58
41945;BME280;63122;52.424;13.458;2022-11-03T12:43:10;100757.66;;;11.96;61.83
41945;BME280;63122;52.424;13.458;2022-11-03T12:45:41;100753.03;;;11.99;61.74
41945;BME280;63122;52.424;13.458;2022-11-03T12:48:13;100758.09;;;11.84;62.66
41945;BME280;63122;52.424;13.458;2022-11-03T12:50:46;100757.06;;;11.76;62.65
41945;BME280;63122;52.424;13.458;2022-11-03T12:53:16;100742.38;;;11.74;62.54
41945;BME280;63122;52.424;13.458;2022-11-03T12:55:46;100756.50;;;11.64;62.94
41945;BME280;63122;52.424;13.458;2022-11-03T12:58:16;100739.22;;;11.78;62.35
41945;BME280;63122;52.424;13.458;2022-11-03T13:00:47;100741.69;;;12.06;60.94
41945;BME280;63122;52.424;13.458;2022-11-03T13:03:25;100734.78;;;12.14;60.93
41945;BME280;63122;52.424;13.458;2022-11-03T13:05:55;100730.47;;;12.04;60.75
41945;BME280;63122;52.424;13.458;2022-11-03T13:08:26;100725.38;;;12.11;60.89
41945;BME280;63122;52.424;13.458;2022-11-03T13:10:56;100731.13;;;12.06;61.11
41945;BME280;63122;52.424;13.458;2022-11-03T13:13:27;100717.84;;;11.98;61.50
41945;BME280;63122;52.424;13.458;2022-11-03T13:15:58;100709.81;;;12.08;60.88
41945;BME280;63122;52.424;13.458;2022-11-03T13:18:30;100708.31;;;12.05;61.52
41945;BME280;63122;52.424;13.458;2022-11-03T13:21:01;100703.75;;;12.24;61.11
41945;BME280;63122;52.424;13.458;2022-11-03T13:23:31;100694.50;;;12.36;60.61
41945;BME280;63122;52.424;13.458;2022-11-03T13:26:01;100680.28;;;12.37;60.25
41945;BME280;63122;52.424;13.458;2022-11-03T13:28:31;100680.94;;;12.39;60.68
41945;BME280;63122;52.424;13.458;2022-11-03T13:31:01;100672.88;;;12.49;60.24
41945;BME280;63122;52.424;13.458;2022-11-03T13:33:33;100667.91;;;12.55;60.02
41945;BME280;63122;52.424;13.458;2022-11-03T13:36:04;100667.25;;;12.69;59.19
41945;BME280;63122;52.424;13.458;2022-11-03T13:38:34;100664.78;;;12.67;59.61
41945;BME280;63122;52.424;13.458;2022-11-03T13:41:05;100654.19;;;12.67;59.42
41945;BME280;63122;52.424;13.458;2022-11-03T13:43:35;100650.03;;;12.81;59.32
41945;BME280;63122;52.424;13.458;2022-11-03T13:46:05;100645.09;;;12.78;59.26
41945;BME280;63122;52.424;13.458;2022-11-03T13:48:38;100631.34;;;12.83;59.14
41945;BME280;63122;52.424;13.458;2022-11-03T13:51:34;100624.91;;;12.86;59.24
41945;BME280;63122;52.424;13.458;2022-11-03T13:54:13;100627.34;;;12.95;59.05
41945;BME280;63122;52.424;13.458;2022-11-03T13:57:03;100619.13;;;12.82;58.97
41945;BME280;63122;52.424;13.458;2022-11-03T13:59:54;100613.31;;;12.95;58.78
41945;BME280;63122;52.424;13.458;2022-11-03T14:02:33;100613.97;;;12.89;59.22
41945;BME280;63122;52.424;13.458;2022-11-03T14:05:28;100608.84;;;12.87;59.23
41945;BME280;63122;52.424;13.458;2022-11-03T14:08:02;100608.03;;;12.87;59.59
41945;BME280;63122;52.424;13.458;2022-11-03T14:10:33;100607.72;;;12.73;60.19
41945;BME280;63122;52.424;13.458;2022-11-03T14:13:08;100605.03;;;12.81;59.87
41945;BME280;63122;52.424;13.458;2022-11-03T14:15:38;100604.53;;;12.86;59.26
41945;BME280;63122;52.424;13.458;2022-11-03T14:18:08;100593.13;;;12.94;58.57
41945;BME280;63122;52.424;13.458;2022-11-03T14:20:41;100594.09;;;13.01;58.25
41945;BME280;63122;52.424;13.458;2022-11-03T14:23:15;100596.09;;;12.91;58.66
41945;BME280;63122;52.424;13.458;2022-11-03T14:25:53;100585.19;;;12.94;58.50
41945;BME280;63122;52.424;13.458;2022-11-03T14:28:44;100588.97;;;12.91;58.56
41945;BME280;63122;52.424;13.458;2022-11-03T14:31:14;100588.66;;;12.86;58.35
41945;BME280;63122;52.424;13.458;2022-11-03T14:33:44;100576.44;;;12.77;58.73
41945;BME280;63122;52.424;13.458;2022-11-03T14:36:17;100572.81;;;12.78;58.77